Time;durP1;ratioP1;P1;durP2;ratioP2;P2;SDS_P1;SDS_P2;PMS_P1;PMS_P2;Temp;Humidity;BMP_temperature;BMP_pressure;BME280_temperature;BME280_humidity;BME280_pressure;Samples;Min_cycle;Max_cycle;Signal;HPM_P1;HPM_P2
2023/09/25 00:02:47;;;;;;;12.30;3.30;;;;;;;22.88;49.83;99978.66;67892;1276;1016449;-65
2023/09/25 00:05:50;;;;;;;17.10;3.20;;;;;;;22.84;49.79;99975.13;67901;1276;1016753;-65
2023/09/25 00:08:52;;;;;;;11.80;3.10;;;;;;;22.72;50.01;99977.46;67909;1276;1016081;-64
2023/09/25 00:11:54;;;;;;;14.40;3.40;;;;;;;22.80;49.87;99990.23;67890;1262;1017746;-65
2023/09/25 00:14:57;;;;;;;11.20;3.50;;;;;;;22.97;49.52;99989.75;67909;1276;1016468;-69
2023/09/25 00:17:59;;;;;;;32.20;10.10;;;;;;;23.08;49.23;99991.70;67946;1276;1019408;-68
2023/09/25 00:21:01;;;;;;;39.10;14.40;;;;;;;23.11;49.00;99992.19;67892;1276;1019482;-64
2023/09/25 00:24:04;;;;;;;;;;;;;;;23.19;48.71;99988.27;67905;1276;1016208;-65
2023/09/25 00:27:07;;;;;;;13.00;4.10;;;;;;;23.07;48.78;99990.21;67883;1276;1016430;-65
2023/09/25 00:30:11;;;;;;;14.00;3.80;;;;;;;23.06;48.69;99992.67;67915;1276;1016202;-66
2023/09/25 00:33:13;;;;;;;15.40;3.90;;;;;;;22.91;49.00;99993.10;67926;1276;1016208;-64
2023/09/25 00:36:16;;;;;;;13.10;3.80;;;;;;;22.84;49.17;99992.05;67928;1276;1016552;-65
2023/09/25 00:39:18;;;;;;;14.50;3.80;;;;;;;22.77;49.37;99993.60;67904;1276;1016029;-64
2023/09/25 00:42:20;;;;;;;11.60;3.50;;;;;;;22.58;49.70;99995.02;67839;1276;1016496;-67
2023/09/25 00:45:23;;;;;;;12.90;3.30;;;;;;;22.52;49.72;99994.27;67910;1276;1016419;-64
2023/09/25 00:48:26;;;;;;;11.90;3.20;;;;;;;22.53;49.66;99994.38;67876;1276;1016541;-66
2023/09/25 00:51:28;;;;;;;10.40;3.10;;;;;;;22.65;49.41;99998.98;67906;1276;1016461;-64
2023/09/25 00:54:31;;;;;;;10.20;3.00;;;;;;;22.45;49.81;100000.46;67848;1276;1016130;-65
2023/09/25 00:57:34;;;;;;;12.70;3.20;;;;;;;22.66;49.52;100003.52;67925;1276;1018860;-64
2023/09/25 01:00:37;;;;;;;11.60;3.00;;;;;;;22.69;49.41;100003.07;67893;1276;1016885;-66
2023/09/25 01:03:40;;;;;;;11.90;3.20;;;;;;;22.58;49.52;100004.42;67868;1276;1016505;-67
2023/09/25 01:06:43;;;;;;;8.10;2.90;;;;;;;22.59;49.67;100004.34;67922;1276;1016069;-66
2023/09/25 01:09:45;;;;;;;9.40;3.10;;;;;;;22.63;49.68;100001.98;67884;1276;1016490;-67
2023/09/25 01:12:48;;;;;;;10.30;3.20;;;;;;;22.74;49.47;99994.58;67892;1276;1016311;-65
2023/09/25 01:15:50;;;;;;;14.20;3.30;;;;;;;22.62;49.75;99991.19;67939;1276;1015751;-66
2023/09/25 01:18:52;;;;;;;10.90;2.90;;;;;;;22.40;50.36;99990.54;67890;1276;1016345;-64
2023/09/25 01:21:55;;;;;;;11.10;3.20;;;;;;;22.39;50.43;99987.49;67846;1276;1016505;-65
2023/09/25 01:24:57;;;;;;;10.80;3.10;;;;;;;22.34;50.36;99984.73;67858;1276;1016481;-66
2023/09/25 01:27:59;;;;;;;16.20;3.60;;;;;;;22.25;50.55;99982.80;67911;1276;1016046;-65
2023/09/25 01:31:03;;;;;;;10.10;3.40;;;;;;;22.26;50.60;99979.67;67904;1276;1016430;-64
2023/09/25 01:34:05;;;;;;;12.40;3.40;;;;;;;22.16;50.79;99984.55;67863;1276;1016451;-65
2023/09/25 01:37:08;;;;;;;13.10;3.60;;;;;;;22.16;50.66;99988.60;67904;1276;1017044;-65
2023/09/25 01:40:15;;;;;;;11.40;3.60;;;;;;;22.15;50.68;99989.08;67914;1276;1016484;-67
2023/09/25 01:43:18;;;;;;;11.80;3.30;;;;;;;22.25;50.54;99985.68;67899;1276;1016177;-65
2023/09/25 01:46:20;;;;;;;17.50;3.10;;;;;;;22.36;50.25;99974.00;67872;1276;1016475;-66
2023/09/25 01:49:22;;;;;;;14.20;3.50;;;;;;;22.40;50.19;99966.66;67873;1276;1016485;-66
2023/09/25 01:52:25;;;;;;;16.10;3.80;;;;;;;22.27;50.26;99959.63;67871;1276;1016240;-68
2023/09/25 01:55:28;;;;;;;14.70;3.60;;;;;;;22.08;50.51;99960.33;67916;1276;1017303;-66
2023/09/25 01:58:30;;;;;;;12.40;3.60;;;;;;;22.11;50.42;99969.97;67928;1276;1015893;-65
2023/09/25 02:01:32;;;;;;;10.80;3.30;;;;;;;21.98;50.76;99966.37;67906;1276;1016423;-66
2023/09/25 02:04:35;;;;;;;12.50;3.50;;;;;;;21.94;50.68;99959.98;67905;1276;1016492;-64
2023/09/25 02:07:37;;;;;;;9.20;3.20;;;;;;;21.85;50.87;99959.20;67888;1276;1015771;-64
2023/09/25 02:10:40;;;;;;;11.80;3.40;;;;;;;21.88;50.78;99954.32;67849;1276;1016695;-65
2023/09/25 02:13:43;;;;;;;14.80;3.60;;;;;;;21.65;51.39;99957.30;67879;1276;1016002;-64
2023/09/25 02:16:45;;;;;;;10.30;3.50;;;;;;;21.63;51.26;99962.24;67869;1276;1016478;-65
2023/09/25 02:19:48;;;;;;;;;;;;;;;21.68;51.30;99959.53;67885;1276;1016319;-65
2023/09/25 02:22:51;;;;;;;14.30;3.70;;;;;;;21.71;51.20;99964.69;67908;1276;1016501;-64
2023/09/25 02:25:53;;;;;;;12.90;3.50;;;;;;;21.78;51.19;99968.17;67873;1276;1016298;-64
2023/09/25 02:28:55;;;;;;;14.80;3.70;;;;;;;21.98;50.85;99973.48;67869;1276;1016218;-65
2023/09/25 02:31:58;;;;;;;20.60;4.50;;;;;;;22.04;50.67;99972.77;67865;1276;1016585;-66
2023/09/25 02:35:00;;;;;;;12.60;4.10;;;;;;;22.04;50.71;99975.06;67912;1276;1016248;-64
2023/09/25 02:38:04;;;;;;;15.60;4.10;;;;;;;22.11;50.72;99970.41;67881;1276;1018689;-70
2023/09/25 02:41:07;;;;;;;12.70;3.30;;;;;;;22.16;50.55;99968.55;67882;1276;1018581;-67
2023/09/25 02:44:09;;;;;;;14.10;3.70;;;;;;;22.33;50.25;99969.66;67874;1276;1016853;-69
2023/09/25 02:47:12;;;;;;;12.20;3.50;;;;;;;22.43;50.02;99973.16;67881;1276;1016448;-67
2023/09/25 02:50:14;;;;;;;11.80;3.70;;;;;;;22.26;50.57;99972.94;67918;1276;1015779;-64
2023/09/25 02:53:16;;;;;;;15.80;3.50;;;;;;;22.18;50.67;99972.09;67894;1276;1016343;-66
2023/09/25 02:56:19;;;;;;;14.60;3.60;;;;;;;22.27;50.44;99976.02;67814;1276;1016858;-65
2023/09/25 02:59:21;;;;;;;13.60;4.30;;;;;;;22.31;50.32;99972.89;67867;1276;1016525;-66
2023/09/25 03:02:25;;;;;;;14.00;4.70;;;;;;;22.40;50.29;99975.94;67850;1276;1017064;-65
2023/09/25 03:05:28;;;;;;;16.20;4.30;;;;;;;22.47;49.97;99976.52;67908;1276;1018721;-65
2023/09/25 03:08:31;;;;;;;14.40;4.00;;;;;;;22.28;50.18;99974.73;67869;1276;1016598;-64
2023/09/25 03:11:33;;;;;;;11.20;3.80;;;;;;;22.33;49.95;99979.59;67880;1276;1016496;-66
2023/09/25 03:14:36;;;;;;;13.30;3.80;;;;;;;22.18;50.15;99980.05;67858;1276;1016382;-65
2023/09/25 03:17:38;;;;;;;11.40;3.70;;;;;;;22.07;50.54;99978.79;67869;1276;1015831;-66
2023/09/25 03:20:40;;;;;;;14.00;4.00;;;;;;;22.09;50.45;99976.24;67867;1276;1016139;-67
2023/09/25 03:23:43;;;;;;;15.20;3.80;;;;;;;22.11;50.32;99977.30;67911;1276;1016102;-64
2023/09/25 03:26:45;;;;;;;16.10;4.30;;;;;;;22.11;50.38;99980.18;67876;1276;1016409;-65
2023/09/25 03:29:48;;;;;;;14.50;4.20;;;;;;;22.15;50.53;99984.45;67822;1276;1016483;-66
2023/09/25 03:32:54;;;;;;;12.80;3.90;;;;;;;22.34;50.17;99986.83;67837;1276;1016454;-67
2023/09/25 03:35:56;;;;;;;14.30;4.20;;;;;;;22.00;50.63;99986.34;67866;1276;1016079;-65
2023/09/25 03:38:59;;;;;;;13.10;4.10;;;;;;;21.84;50.92;99991.66;67900;1276;1016437;-66
2023/09/25 03:42:01;;;;;;;17.20;4.80;;;;;;;21.89;50.83;99994.81;67889;1276;1016206;-64
2023/09/25 03:45:04;;;;;;;14.40;4.20;;;;;;;21.80;51.02;99992.20;67863;1276;1016133;-69
2023/09/25 03:48:06;;;;;;;14.90;4.10;;;;;;;21.79;50.90;99991.95;67875;1276;1016442;-68
2023/09/25 03:51:08;;;;;;;14.10;4.20;;;;;;;21.68;51.16;99990.23;67861;1276;1016461;-65
2023/09/25 03:54:11;;;;;;;15.40;4.70;;;;;;;21.61;51.17;99987.48;67890;1276;1016390;-67
2023/09/25 03:57:13;;;;;;;16.40;5.20;;;;;;;21.64;50.94;99992.20;67901;1276;1016468;-65
2023/09/25 04:00:16;;;;;;;16.80;5.10;;;;;;;21.52;51.20;99992.19;67905;1276;1016307;-68
2023/09/25 04:03:19;;;;;;;16.40;4.80;;;;;;;21.41;51.57;99985.30;67875;1276;1016470;-64
2023/09/25 04:06:22;;;;;;;17.60;5.20;;;;;;;21.54;51.12;99984.41;67877;1276;1016417;-69
2023/09/25 04:09:24;;;;;;;17.40;5.10;;;;;;;21.49;51.23;99986.44;67848;1276;1016632;-67
2023/09/25 04:12:27;;;;;;;15.20;5.10;;;;;;;21.23;51.84;99991.33;67894;1276;1018967;-64
2023/09/25 04:15:31;;;;;;;17.50;4.70;;;;;;;21.21;52.00;99990.79;67897;1276;1016529;-67
2023/09/25 04:18:33;;;;;;;15.30;4.70;;;;;;;21.14;52.31;99991.23;67894;1276;1016100;-67
2023/09/25 04:21:36;;;;;;;16.20;4.90;;;;;;;21.16;52.24;99993.58;67887;1276;1018538;-64
2023/09/25 04:24:38;;;;;;;17.20;4.80;;;;;;;21.17;52.18;99994.36;67899;1276;1016431;-65
2023/09/25 04:27:40;;;;;;;18.10;4.80;;;;;;;21.27;52.21;99998.59;67866;1276;1015839;-65
2023/09/25 04:30:43;;;;;;;15.60;4.60;;;;;;;21.26;52.26;99997.63;67869;1276;1016344;-65
2023/09/25 04:33:45;;;;;;;17.20;5.40;;;;;;;21.28;52.42;99995.81;67880;1276;1016411;-68
2023/09/25 04:36:48;;;;;;;14.30;4.60;;;;;;;21.37;52.42;99998.66;67907;1276;1016604;-65
2023/09/25 04:39:51;;;;;;;17.70;4.60;;;;;;;21.43;52.37;100000.45;67862;1276;1016731;-66
2023/09/25 04:42:53;;;;;;;16.80;5.10;;;;;;;21.44;52.51;100006.01;67904;1276;1016412;-65
2023/09/25 04:45:58;;;;;;;13.60;4.60;;;;;;;21.51;52.41;100006.20;67906;1276;1016558;-69
2023/09/25 04:49:01;;;;;;;16.70;5.00;;;;;;;21.58;52.38;100009.27;67850;1276;1018308;-65
2023/09/25 04:52:03;;;;;;;15.70;4.80;;;;;;;21.68;52.29;100014.48;67894;1276;1016477;-68
2023/09/25 04:55:06;;;;;;;15.60;5.20;;;;;;;21.78;52.09;100011.27;67873;1276;1016508;-65
2023/09/25 04:58:08;;;;;;;15.30;5.00;;;;;;;21.84;52.10;100013.21;67868;1276;1018812;-64
2023/09/25 05:01:11;;;;;;;15.60;4.60;;;;;;;21.99;51.85;100017.56;67896;1276;1016394;-70
2023/09/25 05:04:13;;;;;;;16.80;4.90;;;;;;;22.16;51.68;100020.12;67909;1276;1016361;-65
2023/09/25 05:07:15;;;;;;;14.60;4.90;;;;;;;22.27;51.46;100023.04;67894;1276;1016423;-67
2023/09/25 05:10:18;;;;;;;21.50;5.30;;;;;;;22.36;51.43;100023.07;67863;1276;1016282;-64
2023/09/25 05:13:20;;;;;;;14.80;4.80;;;;;;;22.32;51.58;100021.58;67821;1276;1016371;-65
2023/09/25 05:16:22;;;;;;;16.70;4.90;;;;;;;22.35;51.73;100023.77;67814;1276;1016591;-66
2023/09/25 05:19:25;;;;;;;14.90;4.70;;;;;;;22.50;51.74;100021.56;67835;1276;1016291;-64
2023/09/25 05:22:27;;;;;;;16.60;5.50;;;;;;;22.63;51.58;100025.49;67903;1276;1016465;-66
2023/09/25 05:25:30;;;;;;;18.40;5.40;;;;;;;22.70;51.37;100029.57;67924;1276;1016051;-65
2023/09/25 05:28:32;;;;;;;15.70;5.20;;;;;;;22.68;51.60;100032.02;67891;1276;1016369;-66
2023/09/25 05:31:34;;;;;;;18.70;5.20;;;;;;;22.77;51.63;100037.22;67832;1276;1016293;-65
2023/09/25 05:34:37;;;;;;;15.60;5.10;;;;;;;22.87;51.28;100043.30;67844;1276;1018839;-64
2023/09/25 05:37:39;;;;;;;19.50;5.90;;;;;;;22.93;51.13;100040.42;67859;1276;1016506;-67
2023/09/25 05:40:41;;;;;;;18.30;5.60;;;;;;;22.91;51.46;100041.16;67890;1276;1016181;-69
2023/09/25 05:43:44;;;;;;;15.40;4.90;;;;;;;22.94;51.59;100038.54;67896;1276;1016418;-65
2023/09/25 05:46:46;;;;;;;17.90;5.20;;;;;;;23.08;51.40;100037.35;67910;1276;1017329;-64
2023/09/25 05:49:49;;;;;;;19.30;5.80;;;;;;;23.25;51.18;100034.06;67850;1276;1016398;-65
2023/09/25 05:52:51;;;;;;;17.10;5.70;;;;;;;23.33;51.16;100036.48;67808;1276;1016868;-64
2023/09/25 05:55:55;;;;;;;19.00;6.10;;;;;;;23.26;51.27;100039.66;67827;1276;1016672;-64
2023/09/25 05:58:59;;;;;;;17.70;5.40;;;;;;;23.33;51.40;100046.15;67929;1276;1016487;-65
2023/09/25 06:02:01;;;;;;;15.60;5.00;;;;;;;23.44;51.30;100040.79;67885;1276;1018471;-64
2023/09/25 06:05:04;;;;;;;16.60;5.40;;;;;;;23.52;51.24;100040.01;67885;1276;1016574;-66
2023/09/25 06:08:07;;;;;;;17.50;5.40;;;;;;;23.59;51.24;100037.59;67825;1276;1016150;-68
2023/09/25 06:11:09;;;;;;;17.50;5.70;;;;;;;23.80;51.28;100037.33;67845;1276;1016529;-65
2023/09/25 06:14:12;;;;;;;17.40;5.40;;;;;;;23.90;51.11;100038.71;67863;1276;1016011;-64
2023/09/25 06:17:15;;;;;;;16.10;5.00;;;;;;;24.04;51.06;100038.06;67880;1276;1016843;-68
2023/09/25 06:20:20;;;;;;;16.60;5.10;;;;;;;24.20;50.93;100040.23;67901;1276;1017015;-64
2023/09/25 06:23:22;;;;;;;16.80;5.50;;;;;;;24.47;50.53;100044.56;67886;1276;1018772;-62
2023/09/25 06:26:27;;;;;;;17.50;5.40;;;;;;;24.60;49.99;100038.97;67874;1276;1016278;-62
2023/09/25 06:29:29;;;;;;;15.20;5.40;;;;;;;24.63;50.30;100035.14;67842;1276;1016411;-62
2023/09/25 06:32:32;;;;;;;15.30;5.20;;;;;;;24.94;50.29;100036.98;67878;1276;1018154;-67
2023/09/25 06:35:34;;;;;;;18.90;5.40;;;;;;;25.25;49.72;100035.45;67869;1276;1016383;-62
2023/09/25 06:38:36;;;;;;;;;;;;;;;25.36;49.10;100032.28;67840;1276;1016432;-61
2023/09/25 06:41:39;;;;;;;15.40;4.90;;;;;;;25.35;49.08;100028.64;67833;1275;1016215;-64
2023/09/25 06:44:41;;;;;;;18.10;4.90;;;;;;;25.61;49.12;100029.03;67934;1275;1016458;-66
2023/09/25 06:47:46;;;;;;;;;;;;;;;25.78;48.74;100030.63;67961;1275;1016364;-64
2023/09/25 06:50:49;;;;;;;14.40;4.50;;;;;;;25.84;48.63;100033.20;67940;1275;1016509;-63
2023/09/25 06:53:51;;;;;;;15.80;4.70;;;;;;;25.96;48.19;100035.02;67944;1275;1016438;-66
2023/09/25 06:56:53;;;;;;;;;;;;;;;25.84;47.62;100030.14;67972;1275;1016323;-67
2023/09/25 06:59:56;;;;;;;14.50;5.10;;;;;;;25.80;47.74;100027.52;67918;1275;1016364;-65
2023/09/25 07:02:58;;;;;;;;;;;;;;;25.78;47.57;100026.87;67926;1276;1016382;-65
2023/09/25 07:06:01;;;;;;;18.00;5.20;;;;;;;25.99;47.85;100025.50;67854;1276;1016164;-63
2023/09/25 07:09:03;;;;;;;;;;;;;;;26.18;47.69;100023.53;67834;1276;1016660;-66
2023/09/25 07:12:06;;;;;;;19.00;5.30;;;;;;;26.40;47.33;100025.51;67865;1276;1016076;-63
2023/09/25 07:15:08;;;;;;;14.30;4.80;;;;;;;26.59;46.79;100022.30;67853;1276;1016696;-65
2023/09/25 07:18:11;;;;;;;14.20;4.50;;;;;;;26.48;47.07;100019.61;67835;1276;1016944;-63
2023/09/25 07:21:14;;;;;;;16.00;4.70;;;;;;;26.54;46.72;100015.86;67877;1276;1017047;-62
2023/09/25 07:24:17;;;;;;;14.50;4.70;;;;;;;26.79;46.50;100019.64;67860;1276;1018248;-63
2023/09/25 07:27:20;;;;;;;19.10;5.30;;;;;;;26.96;46.23;100020.29;67849;1276;1016450;-65
2023/09/25 07:30:23;;;;;;;14.70;4.50;;;;;;;27.21;46.37;100021.47;67848;1276;1019261;-64
2023/09/25 07:33:25;;;;;;;14.60;4.30;;;;;;;27.61;46.39;100025.20;67852;1276;1016220;-63
2023/09/25 07:36:27;;;;;;;22.50;4.70;;;;;;;27.84;45.60;100022.55;67835;1276;1016811;-64
2023/09/25 07:39:30;;;;;;;13.80;4.20;;;;;;;28.34;45.86;100029.54;67845;1276;1016793;-62
2023/09/25 07:42:32;;;;;;;15.10;4.30;;;;;;;28.67;44.65;100030.08;67889;1276;1016467;-64
2023/09/25 07:45:35;;;;;;;13.40;4.20;;;;;;;28.77;43.65;100030.37;67883;1276;1016241;-63
2023/09/25 07:48:38;;;;;;;13.40;4.20;;;;;;;28.73;43.93;100031.04;67845;1276;1016548;-62
2023/09/25 07:51:41;;;;;;;13.60;3.80;;;;;;;28.85;44.57;100032.11;67867;1276;1016362;-64
2023/09/25 07:54:44;;;;;;;14.90;4.60;;;;;;;29.00;44.17;100036.08;67848;1276;1016375;-65
2023/09/25 07:57:47;;;;;;;11.40;3.70;;;;;;;29.01;43.52;100045.07;67840;1276;1015970;-66
2023/09/25 08:00:51;;;;;;;10.30;3.60;;;;;;;28.75;43.22;100045.32;67850;1275;1016420;-63
2023/09/25 08:03:54;;;;;;;9.70;3.40;;;;;;;28.62;42.67;100046.53;67903;1275;1018941;-64
2023/09/25 08:06:56;;;;;;;15.00;4.00;;;;;;;28.46;42.93;100039.52;67934;1275;1016415;-64
2023/09/25 08:09:59;;;;;;;12.60;3.60;;;;;;;28.29;43.14;100043.42;67976;1275;1016278;-64
2023/09/25 08:13:02;;;;;;;8.60;3.30;;;;;;;28.23;43.15;100047.59;67866;1275;1016747;-66
2023/09/25 08:16:04;;;;;;;10.10;3.50;;;;;;;28.23;43.52;100046.84;67977;1275;1016113;-64
2023/09/25 08:19:06;;;;;;;11.40;3.60;;;;;;;28.34;43.23;100040.57;67951;1275;1016374;-63
2023/09/25 08:22:10;;;;;;;8.60;3.30;;;;;;;28.37;43.05;100039.13;67947;1275;1017324;-64
2023/09/25 08:25:12;;;;;;;12.20;3.50;;;;;;;28.57;42.63;100045.29;67906;1276;1017079;-65
2023/09/25 08:28:15;;;;;;;11.10;3.50;;;;;;;28.51;43.22;100050.42;67837;1276;1016148;-65
2023/09/25 08:31:17;;;;;;;11.30;3.20;;;;;;;28.41;43.16;100050.33;67887;1276;1016452;-64
2023/09/25 08:34:19;;;;;;;9.70;3.40;;;;;;;28.31;43.43;100057.11;67861;1276;1016451;-66
2023/09/25 08:37:22;;;;;;;9.10;3.50;;;;;;;28.24;43.12;100051.99;67839;1276;1016085;-64
2023/09/25 08:40:24;;;;;;;14.60;3.60;;;;;;;28.18;43.06;100053.58;67813;1276;1016872;-63
2023/09/25 08:43:26;;;;;;;12.10;3.70;;;;;;;27.89;42.58;100050.22;67840;1276;1016939;-63
2023/09/25 08:46:29;;;;;;;12.70;3.50;;;;;;;27.42;43.89;100048.32;67878;1253;1016393;-66
2023/09/25 08:49:31;;;;;;;11.60;3.50;;;;;;;27.37;44.19;100050.36;67876;1276;1016864;-63
2023/09/25 08:52:34;;;;;;;14.80;3.60;;;;;;;27.61;43.95;100047.86;67854;1276;1016450;-63
2023/09/25 08:55:36;;;;;;;10.90;3.60;;;;;;;27.57;43.92;100044.34;67813;1276;1018079;-64
2023/09/25 08:58:38;;;;;;;11.40;3.50;;;;;;;27.73;44.11;100046.59;67856;1276;1016484;-64
2023/09/25 09:01:41;;;;;;;9.50;3.30;;;;;;;27.91;43.82;100045.40;67840;1276;1016389;-63
2023/09/25 09:04:43;;;;;;;11.80;3.90;;;;;;;28.07;43.54;100044.99;67844;1276;1016373;-63
2023/09/25 09:07:45;;;;;;;9.00;3.40;;;;;;;28.28;43.62;100043.27;67880;1276;1018896;-63
2023/09/25 09:10:48;;;;;;;11.50;3.20;;;;;;;28.36;43.14;100046.11;67708;1276;1168272;-63
2023/09/25 09:13:50;;;;;;;10.20;3.10;;;;;;;28.33;42.72;100039.63;67825;1276;1016480;-64
2023/09/25 09:16:52;;;;;;;7.30;3.00;;;;;;;28.33;43.11;100042.52;67814;1276;1016488;-64
2023/09/25 09:19:55;;;;;;;11.30;3.00;;;;;;;28.45;42.77;100039.05;67810;1276;1016053;-63
2023/09/25 09:22:58;;;;;;;9.50;3.30;;;;;;;28.46;42.96;100036.43;67885;1276;1016738;-66
2023/09/25 09:26:00;;;;;;;12.60;3.30;;;;;;;28.84;42.83;100041.36;67882;1276;1016184;-67
2023/09/25 09:29:02;;;;;;;10.80;3.10;;;;;;;28.79;42.48;100028.20;67861;1276;1016030;-66
2023/09/25 09:32:05;;;;;;;10.70;3.30;;;;;;;28.68;42.44;100027.81;67840;1276;1016326;-64
2023/09/25 09:35:08;;;;;;;13.20;3.50;;;;;;;28.93;41.85;100023.88;67832;1276;1016453;-64
2023/09/25 09:38:11;;;;;;;9.00;3.10;;;;;;;28.85;41.00;100017.15;67857;1276;1016110;-64
2023/09/25 09:41:13;;;;;;;11.40;3.10;;;;;;;28.72;41.86;100020.78;67836;1276;1016158;-63
2023/09/25 09:44:15;;;;;;;10.20;3.00;;;;;;;29.10;41.36;100012.58;67880;1276;1016441;-63
2023/09/25 09:47:18;;;;;;;8.50;2.90;;;;;;;29.29;41.10;100011.77;67846;1276;1016567;-64
2023/09/25 09:50:21;;;;;;;9.80;2.80;;;;;;;29.41;40.59;100002.73;67895;1276;1017641;-63
2023/09/25 09:53:23;;;;;;;11.10;2.50;;;;;;;29.29;40.56;100008.80;67835;1276;1016429;-63
2023/09/25 09:56:27;;;;;;;10.90;2.90;;;;;;;29.00;40.37;100004.58;67851;1276;1015975;-64
2023/09/25 09:59:29;;;;;;;8.30;3.00;;;;;;;29.04;40.72;100006.56;67872;1276;1016722;-63
2023/09/25 10:02:32;;;;;;;10.30;2.70;;;;;;;29.15;40.82;100006.38;67837;1276;1016373;-63
2023/09/25 10:05:35;;;;;;;6.80;2.40;;;;;;;29.17;40.40;100006.12;67874;1276;1016952;-63
2023/09/25 10:08:37;;;;;;;7.90;2.60;;;;;;;29.39;41.12;100008.52;67820;1276;1016427;-63
2023/09/25 10:11:40;;;;;;;6.80;2.40;;;;;;;29.52;40.75;100012.35;67813;1276;1016169;-63
2023/09/25 10:14:43;;;;;;;7.60;2.70;;;;;;;29.75;40.12;100007.72;67838;1276;1016488;-64
2023/09/25 10:17:45;;;;;;;8.30;2.60;;;;;;;29.65;39.67;100011.48;67788;1276;1019044;-63
2023/09/25 10:20:48;;;;;;;5.30;2.50;;;;;;;29.44;40.18;100008.88;67841;1276;1019330;-64
2023/09/25 10:23:50;;;;;;;6.90;2.90;;;;;;;29.41;40.68;100009.46;67851;1276;1016392;-64
2023/09/25 10:26:52;;;;;;;9.10;2.80;;;;;;;29.50;40.34;100007.88;67875;1276;1017027;-66
2023/09/25 10:29:55;;;;;;;8.70;2.50;;;;;;;29.45;40.28;100005.81;67888;1276;1016337;-64
2023/09/25 10:32:57;;;;;;;6.80;2.70;;;;;;;29.34;40.40;100002.48;67917;1276;1017014;-65
2023/09/25 10:36:00;;;;;;;8.80;2.70;;;;;;;29.44;40.90;99999.28;67838;1276;1016024;-65
2023/09/25 10:39:02;;;;;;;8.80;2.80;;;;;;;29.69;40.39;99995.38;67869;1276;1017521;-66
2023/09/25 10:42:05;;;;;;;9.40;2.70;;;;;;;29.58;39.93;99991.21;67896;1276;1018063;-66
2023/09/25 10:45:07;;;;;;;6.50;2.50;;;;;;;29.77;40.35;99990.02;67796;1276;1016287;-65
2023/09/25 10:48:10;;;;;;;8.00;2.80;;;;;;;29.89;40.17;99993.35;67839;1276;1017069;-65
2023/09/25 10:51:12;;;;;;;4.50;2.30;;;;;;;29.96;40.89;99990.05;67840;1276;1016621;-64
2023/09/25 10:54:14;;;;;;;10.70;2.40;;;;;;;30.12;40.86;99989.17;67776;1276;1016500;-64
2023/09/25 10:57:17;;;;;;;7.20;2.50;;;;;;;30.15;39.90;99990.36;67782;1276;1015940;-64
2023/09/25 11:00:19;;;;;;;10.20;2.80;;;;;;;30.21;39.97;99993.17;67767;1276;1015863;-64
2023/09/25 11:03:22;;;;;;;6.80;2.20;;;;;;;30.37;40.02;99987.45;67759;1276;1016472;-66
2023/09/25 11:06:24;;;;;;;12.40;2.50;;;;;;;30.15;39.18;99990.02;67740;1276;1016836;-66
2023/09/25 11:09:27;;;;;;;5.70;2.10;;;;;;;29.75;39.70;99987.00;67799;1276;1016432;-66
2023/09/25 11:12:30;;;;;;;7.40;2.40;;;;;;;29.83;39.97;99984.61;67923;1276;1016347;-65
2023/09/25 11:15:32;;;;;;;6.30;2.30;;;;;;;30.16;39.67;99986.50;67863;1276;1016080;-65
2023/09/25 11:18:35;;;;;;;7.20;2.30;;;;;;;30.27;39.23;99986.31;67858;1276;1016745;-65
2023/09/25 11:21:37;;;;;;;13.60;2.30;;;;;;;30.37;39.46;99985.29;67912;1276;1016445;-65
2023/09/25 11:24:40;;;;;;;8.50;2.30;;;;;;;30.13;39.38;99986.44;67904;1276;1015882;-64
2023/09/25 11:27:42;;;;;;;9.40;2.60;;;;;;;30.24;39.76;99987.11;67840;1276;1016244;-66
2023/09/25 11:30:46;;;;;;;9.20;2.40;;;;;;;30.07;39.33;99983.80;67869;1276;1016393;-64
2023/09/25 11:33:48;;;;;;;12.20;2.70;;;;;;;29.97;39.51;99989.90;67867;1276;1016525;-64
2023/09/25 11:36:51;;;;;;;10.10;3.20;;;;;;;29.75;39.43;99987.00;67860;1276;1016419;-64
2023/09/25 11:39:53;;;;;;;10.80;3.30;;;;;;;29.75;39.91;99988.09;67847;1276;1016069;-65
2023/09/25 11:42:56;;;;;;;7.00;2.90;;;;;;;29.65;39.90;99989.51;67888;1276;1016360;-66
2023/09/25 11:45:58;;;;;;;10.60;3.10;;;;;;;29.60;40.42;99988.33;67889;1276;1018295;-65
2023/09/25 11:49:01;;;;;;;11.10;3.00;;;;;;;29.96;40.16;99989.52;67809;1276;1016315;-66
2023/09/25 11:52:03;;;;;;;11.80;3.00;;;;;;;30.07;39.92;99994.27;67820;1276;1016508;-68
2023/09/25 11:55:06;;;;;;;12.20;3.40;;;;;;;29.87;40.09;99995.98;67747;1276;1016371;-67
2023/09/25 11:58:08;;;;;;;14.40;3.50;;;;;;;29.94;40.24;99999.77;67827;1276;1016662;-67
2023/09/25 12:01:11;;;;;;;10.70;3.30;;;;;;;29.91;40.21;99992.57;67743;1276;1016194;-66
2023/09/25 12:04:13;;;;;;;8.30;3.10;;;;;;;29.99;39.82;99991.75;67727;1276;1016635;-65
2023/09/25 12:07:16;;;;;;;12.60;3.50;;;;;;;30.03;40.21;99992.03;67795;1276;1016748;-66
2023/09/25 12:10:19;;;;;;;10.40;3.30;;;;;;;29.92;40.35;99991.02;67773;1276;1016813;-68
2023/09/25 12:13:22;;;;;;;9.10;3.20;;;;;;;30.09;40.81;99992.89;67831;1276;1016416;-65
2023/09/25 12:16:24;;;;;;;9.40;3.20;;;;;;;30.22;40.26;99993.02;67797;1276;1016307;-67
2023/09/25 12:19:26;;;;;;;11.80;3.30;;;;;;;30.33;40.37;99991.70;67713;1276;1016015;-66
2023/09/25 12:22:29;;;;;;;10.10;3.30;;;;;;;30.28;40.05;99988.88;67774;1276;1016372;-65
2023/09/25 12:25:32;;;;;;;10.30;3.40;;;;;;;30.08;40.51;99990.47;67905;1276;1016255;-67
2023/09/25 12:28:34;;;;;;;16.10;4.00;;;;;;;30.01;40.19;99984.66;67869;1276;1016303;-65
2023/09/25 12:31:37;;;;;;;11.50;3.30;;;;;;;29.97;40.27;99985.61;67834;1276;1016388;-65
2023/09/25 12:34:39;;;;;;;12.70;3.30;;;;;;;29.89;40.47;99981.45;67838;1276;1016498;-64
2023/09/25 12:37:42;;;;;;;11.40;3.70;;;;;;;29.82;40.25;99983.98;67866;1276;1017759;-64
2023/09/25 12:40:44;;;;;;;13.70;3.70;;;;;;;29.83;40.43;99981.88;67892;1276;1016348;-65
2023/09/25 12:43:47;;;;;;;14.70;3.50;;;;;;;29.94;40.81;99981.24;67854;1276;1016510;-66
2023/09/25 12:46:49;;;;;;;12.10;3.30;;;;;;;30.04;40.46;99979.82;67858;1276;1016768;-66
2023/09/25 12:49:52;;;;;;;12.80;3.60;;;;;;;30.11;40.34;99980.25;67875;1276;1020296;-66
2023/09/25 12:52:54;;;;;;;14.70;3.80;;;;;;;29.99;40.55;99975.82;67864;1276;1016372;-66
2023/09/25 12:55:56;;;;;;;10.60;3.40;;;;;;;29.90;40.64;99972.80;67887;1276;1016403;-64
2023/09/25 12:58:59;;;;;;;12.60;3.80;;;;;;;29.76;41.17;99979.95;67856;1276;1016062;-66
2023/09/25 13:02:01;;;;;;;14.40;3.70;;;;;;;29.73;41.41;99978.38;67843;1276;1016500;-68
2023/09/25 13:05:04;;;;;;;10.70;3.30;;;;;;;29.79;40.95;99975.66;67870;1276;1016615;-67
2023/09/25 13:08:07;;;;;;;10.20;3.40;;;;;;;29.52;41.31;99974.34;67894;1276;1018744;-66
2023/09/25 13:11:10;;;;;;;12.10;3.60;;;;;;;29.41;41.64;99975.16;67876;1276;1016388;-64
2023/09/25 13:14:12;;;;;;;12.00;3.60;;;;;;;29.33;41.83;99976.52;67882;1276;1016522;-64
2023/09/25 13:17:15;;;;;;;9.90;3.40;;;;;;;29.25;42.13;99972.94;67848;1276;1016239;-66
2023/09/25 13:20:17;;;;;;;10.90;3.50;;;;;;;29.20;42.44;99970.52;67854;1276;1016393;-64
2023/09/25 13:23:20;;;;;;;15.50;4.00;;;;;;;28.95;42.20;99974.86;67860;1276;1016472;-66
2023/09/25 13:26:22;;;;;;;13.50;4.00;;;;;;;28.75;42.92;99978.42;67881;1276;1016919;-67
2023/09/25 13:29:25;;;;;;;10.60;3.70;;;;;;;28.71;42.75;99977.48;67872;1276;1016329;-66
2023/09/25 13:32:27;;;;;;;11.90;3.50;;;;;;;28.48;43.23;99977.96;67839;1276;1016216;-66
2023/09/25 13:35:30;;;;;;;13.60;4.10;;;;;;;28.36;43.33;99977.19;67838;1276;1016452;-67
2023/09/25 13:38:32;;;;;;;9.60;3.20;;;;;;;28.31;43.59;99973.70;67880;1276;1016341;-65
2023/09/25 13:41:34;;;;;;;14.00;4.00;;;;;;;28.27;43.37;99964.38;67845;1276;1016358;-66
2023/09/25 13:44:37;;;;;;;13.50;3.60;;;;;;;28.25;43.76;99966.09;67893;1276;1016475;-65
2023/09/25 13:47:39;;;;;;;10.00;3.40;;;;;;;28.36;43.51;99956.55;67787;1276;1017050;-65
2023/09/25 13:50:41;;;;;;;11.50;3.70;;;;;;;28.29;43.72;99951.46;67692;1276;1016317;-64